sensor_id;sensor_type;location;lat;lon;timestamp;temperature;humidity
31038;DHT22;17702;47.590;7.666;2023-03-01T00:00:45;2.40;98.40
31038;DHT22;17702;47.590;7.666;2023-03-01T00:03:11;2.40;98.90
31038;DHT22;17702;47.590;7.666;2023-03-01T00:05:43;2.40;98.40
31038;DHT22;17702;47.590;7.666;2023-03-01T00:08:08;2.40;98.00
31038;DHT22;17702;47.590;7.666;2023-03-01T00:10:34;2.30;98.10
31038;DHT22;17702;47.590;7.666;2023-03-01T00:12:59;2.40;98.20
31038;DHT22;17702;47.590;7.666;2023-03-01T00:15:25;2.40;97.60
31038;DHT22;17702;47.590;7.666;2023-03-01T00:17:50;2.40;98.10
31038;DHT22;17702;47.590;7.666;2023-03-01T00:20:15;2.40;98.40
31038;DHT22;17702;47.590;7.666;2023-03-01T00:22:42;2.50;98.50
31038;DHT22;17702;47.590;7.666;2023-03-01T00:25:07;2.50;98.50
31038;DHT22;17702;47.590;7.666;2023-03-01T00:27:33;2.40;98.80
31038;DHT22;17702;47.590;7.666;2023-03-01T00:29:58;2.30;98.60
31038;DHT22;17702;47.590;7.666;2023-03-01T00:32:24;2.30;98.50
31038;DHT22;17702;47.590;7.666;2023-03-01T00:34:49;2.30;99.00
31038;DHT22;17702;47.590;7.666;2023-03-01T00:37:22;2.30;98.70
31038;DHT22;17702;47.590;7.666;2023-03-01T00:39:48;2.30;98.60
31038;DHT22;17702;47.590;7.666;2023-03-01T00:42:14;2.30;98.20
31038;DHT22;17702;47.590;7.666;2023-03-01T00:44:39;2.30;98.20
31038;DHT22;17702;47.590;7.666;2023-03-01T00:47:05;2.20;98.30
31038;DHT22;17702;47.590;7.666;2023-03-01T00:49:30;2.20;99.00
31038;DHT22;17702;47.590;7.666;2023-03-01T00:51:56;2.30;99.20
31038;DHT22;17702;47.590;7.666;2023-03-01T00:54:21;2.40;98.80
31038;DHT22;17702;47.590;7.666;2023-03-01T00:56:47;2.30;99.30
31038;DHT22;17702;47.590;7.666;2023-03-01T00:59:12;2.30;99.20
31038;DHT22;17702;47.590;7.666;2023-03-01T01:01:38;2.20;99.00
31038;DHT22;17702;47.590;7.666;2023-03-01T01:04:05;2.30;99.10
31038;DHT22;17702;47.590;7.666;2023-03-01T01:06:48;2.20;99.10
31038;DHT22;17702;47.590;7.666;2023-03-01T01:09:15;2.20;99.40
31038;DHT22;17702;47.590;7.666;2023-03-01T01:11:44;2.30;99.20
31038;DHT22;17702;47.590;7.666;2023-03-01T01:14:10;2.20;99.20
31038;DHT22;17702;47.590;7.666;2023-03-01T01:16:36;2.20;99.20
31038;DHT22;17702;47.590;7.666;2023-03-01T01:19:02;2.20;99.20
31038;DHT22;17702;47.590;7.666;2023-03-01T01:21:27;2.20;99.40
31038;DHT22;17702;47.590;7.666;2023-03-01T01:23:53;2.20;98.80
31038;DHT22;17702;47.590;7.666;2023-03-01T01:26:20;2.10;99.20
31038;DHT22;17702;47.590;7.666;2023-03-01T01:28:46;2.10;98.90
31038;DHT22;17702;47.590;7.666;2023-03-01T01:31:11;1.90;98.60
31038;DHT22;17702;47.590;7.666;2023-03-01T01:33:37;1.70;99.20
31038;DHT22;17702;47.590;7.666;2023-03-01T01:36:03;1.70;99.30
31038;DHT22;17702;47.590;7.666;2023-03-01T01:38:29;1.70;99.60
31038;DHT22;17702;47.590;7.666;2023-03-01T01:40:55;1.60;99.00
31038;DHT22;17702;47.590;7.666;2023-03-01T01:43:24;1.60;99.40
31038;DHT22;17702;47.590;7.666;2023-03-01T01:45:51;1.60;99.00
31038;DHT22;17702;47.590;7.666;2023-03-01T01:48:20;1.50;98.90
31038;DHT22;17702;47.590;7.666;2023-03-01T01:50:48;1.40;99.20
31038;DHT22;17702;47.590;7.666;2023-03-01T01:53:16;1.40;98.40
31038;DHT22;17702;47.590;7.666;2023-03-01T01:55:45;1.30;99.00
31038;DHT22;17702;47.590;7.666;2023-03-01T01:58:14;1.40;98.50
31038;DHT22;17702;47.590;7.666;2023-03-01T02:00:40;1.30;98.30
31038;DHT22;17702;47.590;7.666;2023-03-01T02:03:08;1.10;98.40
31038;DHT22;17702;47.590;7.666;2023-03-01T02:05:48;1.10;98.70
31038;DHT22;17702;47.590;7.666;2023-03-01T02:08:15;1.20;98.60
31038;DHT22;17702;47.590;7.666;2023-03-01T02:10:42;1.10;98.30
31038;DHT22;17702;47.590;7.666;2023-03-01T02:13:07;1.10;98.90
31038;DHT22;17702;47.590;7.666;2023-03-01T02:15:34;1.10;99.00
31038;DHT22;17702;47.590;7.666;2023-03-01T02:18:00;1.00;98.80
31038;DHT22;17702;47.590;7.666;2023-03-01T02:20:37;0.90;99.10
31038;DHT22;17702;47.590;7.666;2023-03-01T02:23:06;0.90;98.90
31038;DHT22;17702;47.590;7.666;2023-03-01T02:28:40;0.80;98.60
31038;DHT22;17702;47.590;7.666;2023-03-01T02:30:47;0.80;98.80
31038;DHT22;17702;47.590;7.666;2023-03-01T02:33:32;0.80;98.50
31038;DHT22;17702;47.590;7.666;2023-03-01T02:36:00;0.60;98.70
31038;DHT22;17702;47.590;7.666;2023-03-01T02:38:26;0.70;99.30
31038;DHT22;17702;47.590;7.666;2023-03-01T02:40:52;0.60;98.80
31038;DHT22;17702;47.590;7.666;2023-03-01T02:43:20;0.50;99.10
31038;DHT22;17702;47.590;7.666;2023-03-01T02:45:49;0.50;99.30
31038;DHT22;17702;47.590;7.666;2023-03-01T02:48:16;0.50;99.70
31038;DHT22;17702;47.590;7.666;2023-03-01T02:53:39;0.50;99.50
31038;DHT22;17702;47.590;7.666;2023-03-01T02:56:07;0.50;99.00
31038;DHT22;17702;47.590;7.666;2023-03-01T02:58:39;0.60;99.40
31038;DHT22;17702;47.590;7.666;2023-03-01T03:01:13;0.50;98.60
31038;DHT22;17702;47.590;7.666;2023-03-01T03:03:40;0.50;98.70
31038;DHT22;17702;47.590;7.666;2023-03-01T03:06:06;0.50;98.60
31038;DHT22;17702;47.590;7.666;2023-03-01T03:08:31;0.50;98.20
31038;DHT22;17702;47.590;7.666;2023-03-01T03:10:57;0.30;98.40
31038;DHT22;17702;47.590;7.666;2023-03-01T03:13:22;0.30;98.70
31038;DHT22;17702;47.590;7.666;2023-03-01T03:15:56;0.20;99.60
31038;DHT22;17702;47.590;7.666;2023-03-01T03:18:23;0.30;99.80
31038;DHT22;17702;47.590;7.666;2023-03-01T03:20:51;0.40;99.30
31038;DHT22;17702;47.590;7.666;2023-03-01T03:23:18;0.40;99.10
31038;DHT22;17702;47.590;7.666;2023-03-01T03:25:44;0.50;98.90
31038;DHT22;17702;47.590;7.666;2023-03-01T03:28:09;0.50;98.80
31038;DHT22;17702;47.590;7.666;2023-03-01T03:30:36;0.40;99.10
31038;DHT22;17702;47.590;7.666;2023-03-01T03:33:04;0.30;99.40
31038;DHT22;17702;47.590;7.666;2023-03-01T03:35:31;0.40;99.40
31038;DHT22;17702;47.590;7.666;2023-03-01T03:37:57;0.40;99.50
31038;DHT22;17702;47.590;7.666;2023-03-01T03:40:33;0.50;99.10
31038;DHT22;17702;47.590;7.666;2023-03-01T03:42:59;0.60;98.60
31038;DHT22;17702;47.590;7.666;2023-03-01T03:45:24;0.40;98.20
31038;DHT22;17702;47.590;7.666;2023-03-01T03:47:50;0.30;98.50
31038;DHT22;17702;47.590;7.666;2023-03-01T03:50:16;0.30;98.80
31038;DHT22;17702;47.590;7.666;2023-03-01T03:52:42;0.20;98.90
31038;DHT22;17702;47.590;7.666;2023-03-01T03:55:08;0.20;98.80
31038;DHT22;17702;47.590;7.666;2023-03-01T03:57:37;0.20;98.90
31038;DHT22;17702;47.590;7.666;2023-03-01T04:00:04;0.20;98.30
31038;DHT22;17702;47.590;7.666;2023-03-01T04:02:30;0.10;98.60
31038;DHT22;17702;47.590;7.666;2023-03-01T04:04:56;0.10;98.80
31038;DHT22;17702;47.590;7.666;2023-03-01T04:07:21;0.00;99.00
31038;DHT22;17702;47.590;7.666;2023-03-01T04:09:47;-0.10;99.10
31038;DHT22;17702;47.590;7.666;2023-03-01T04:12:12;-0.10;98.80
31038;DHT22;17702;47.590;7.666;2023-03-01T04:14:38;-0.20;99.40
31038;DHT22;17702;47.590;7.666;2023-03-01T04:17:03;-0.20;99.70
31038;DHT22;17702;47.590;7.666;2023-03-01T04:19:31;-0.10;99.80
31038;DHT22;17702;47.590;7.666;2023-03-01T04:22:03;-0.10;99.90
31038;DHT22;17702;47.590;7.666;2023-03-01T04:24:34;-0.10;99.80
31038;DHT22;17702;47.590;7.666;2023-03-01T04:27:00;-0.20;99.90
31038;DHT22;17702;47.590;7.666;2023-03-01T04:29:26;-0.10;99.90
31038;DHT22;17702;47.590;7.666;2023-03-01T04:31:51;0.00;99.90
31038;DHT22;17702;47.590;7.666;2023-03-01T04:34:17;0.00;99.90
31038;DHT22;17702;47.590;7.666;2023-03-01T04:36:42;0.10;99.90
31038;DHT22;17702;47.590;7.666;2023-03-01T04:39:08;0.10;99.90
31038;DHT22;17702;47.590;7.666;2023-03-01T04:41:37;0.10;99.90
31038;DHT22;17702;47.590;7.666;2023-03-01T04:44:04;0.30;99.90
31038;DHT22;17702;47.590;7.666;2023-03-01T04:46:30;0.20;99.90
31038;DHT22;17702;47.590;7.666;2023-03-01T04:48:55;0.20;99.90
31038;DHT22;17702;47.590;7.666;2023-03-01T04:51:21;0.40;99.90
31038;DHT22;17702;47.590;7.666;2023-03-01T04:53:46;0.50;99.90
31038;DHT22;17702;47.590;7.666;2023-03-01T04:56:12;0.60;99.90
31038;DHT22;17702;47.590;7.666;2023-03-01T04:58:43;0.60;99.90
31038;DHT22;17702;47.590;7.666;2023-03-01T05:01:13;0.70;99.90
31038;DHT22;17702;47.590;7.666;2023-03-01T05:03:49;0.70;99.90
31038;DHT22;17702;47.590;7.666;2023-03-01T05:06:16;0.80;99.90
31038;DHT22;17702;47.590;7.666;2023-03-01T05:08:42;0.80;99.90
31038;DHT22;17702;47.590;7.666;2023-03-01T05:11:07;0.80;99.90
31038;DHT22;17702;47.590;7.666;2023-03-01T05:13:34;0.90;99.90
31038;DHT22;17702;47.590;7.666;2023-03-01T05:16:00;0.80;99.90
31038;DHT22;17702;47.590;7.666;2023-03-01T05:18:27;0.80;99.90
31038;DHT22;17702;47.590;7.666;2023-03-01T05:20:53;0.80;99.90
31038;DHT22;17702;47.590;7.666;2023-03-01T05:23:21;0.80;99.90
31038;DHT22;17702;47.590;7.666;2023-03-01T05:25:47;0.80;99.90
31038;DHT22;17702;47.590;7.666;2023-03-01T05:28:13;0.80;99.90
31038;DHT22;17702;47.590;7.666;2023-03-01T05:30:39;0.80;99.90
31038;DHT22;17702;47.590;7.666;2023-03-01T05:33:05;0.90;99.90
31038;DHT22;17702;47.590;7.666;2023-03-01T05:35:35;0.90;99.90
31038;DHT22;17702;47.590;7.666;2023-03-01T05:38:01;0.90;99.90
31038;DHT22;17702;47.590;7.666;2023-03-01T05:40:26;0.90;99.90
31038;DHT22;17702;47.590;7.666;2023-03-01T05:42:55;0.90;99.90
31038;DHT22;17702;47.590;7.666;2023-03-01T05:45:22;0.90;99.90
31038;DHT22;17702;47.590;7.666;2023-03-01T05:47:48;1.00;99.90
31038;DHT22;17702;47.590;7.666;2023-03-01T05:50:15;1.00;99.90
31038;DHT22;17702;47.590;7.666;2023-03-01T05:52:51;1.00;99.90
31038;DHT22;17702;47.590;7.666;2023-03-01T05:55:17;1.00;99.90
31038;DHT22;17702;47.590;7.666;2023-03-01T05:57:43;1.10;99.90
31038;DHT22;17702;47.590;7.666;2023-03-01T06:00:09;1.10;99.90
31038;DHT22;17702;47.590;7.666;2023-03-01T06:02:34;1.00;99.90
31038;DHT22;17702;47.590;7.666;2023-03-01T06:05:00;0.90;99.80
31038;DHT22;17702;47.590;7.666;2023-03-01T06:07:26;1.00;99.90
31038;DHT22;17702;47.590;7.666;2023-03-01T06:09:51;0.90;99.90
31038;DHT22;17702;47.590;7.666;2023-03-01T06:12:17;0.90;99.90
31038;DHT22;17702;47.590;7.666;2023-03-01T06:14:42;1.00;99.90
31038;DHT22;17702;47.590;7.666;2023-03-01T06:17:08;0.90;99.90
31038;DHT22;17702;47.590;7.666;2023-03-01T06:19:33;0.90;99.90
31038;DHT22;17702;47.590;7.666;2023-03-01T06:21:59;0.90;99.90
31038;DHT22;17702;47.590;7.666;2023-03-01T06:24:24;0.90;99.90
31038;DHT22;17702;47.590;7.666;2023-03-01T06:26:50;0.90;99.90
31038;DHT22;17702;47.590;7.666;2023-03-01T06:29:15;1.00;99.90
31038;DHT22;17702;47.590;7.666;2023-03-01T06:31:41;1.00;99.90
31038;DHT22;17702;47.590;7.666;2023-03-01T06:34:06;1.00;99.80
31038;DHT22;17702;47.590;7.666;2023-03-01T06:36:32;1.00;99.60
31038;DHT22;17702;47.590;7.666;2023-03-01T06:38:57;1.00;99.60
31038;DHT22;17702;47.590;7.666;2023-03-01T06:41:23;1.00;99.50
31038;DHT22;17702;47.590;7.666;2023-03-01T06:43:48;1.00;99.50
31038;DHT22;17702;47.590;7.666;2023-03-01T06:46:14;0.90;99.60
31038;DHT22;17702;47.590;7.666;2023-03-01T06:48:39;0.90;99.90
31038;DHT22;17702;47.590;7.666;2023-03-01T06:51:05;1.00;99.70
31038;DHT22;17702;47.590;7.666;2023-03-01T06:53:30;1.10;99.70
31038;DHT22;17702;47.590;7.666;2023-03-01T06:55:56;1.10;99.60
31038;DHT22;17702;47.590;7.666;2023-03-01T06:58:21;1.00;99.90
31038;DHT22;17702;47.590;7.666;2023-03-01T07:00:47;1.00;99.90
31038;DHT22;17702;47.590;7.666;2023-03-01T07:03:12;1.00;99.90
31038;DHT22;17702;47.590;7.666;2023-03-01T07:05:38;0.90;99.90
31038;DHT22;17702;47.590;7.666;2023-03-01T07:08:03;1.00;99.90
31038;DHT22;17702;47.590;7.666;2023-03-01T07:10:29;1.10;99.70
31038;DHT22;17702;47.590;7.666;2023-03-01T07:12:58;1.20;99.70
31038;DHT22;17702;47.590;7.666;2023-03-01T07:15:24;1.20;99.80
31038;DHT22;17702;47.590;7.666;2023-03-01T07:17:49;1.10;99.10
31038;DHT22;17702;47.590;7.666;2023-03-01T07:20:16;1.20;99.50
31038;DHT22;17702;47.590;7.666;2023-03-01T07:22:41;1.20;99.20
31038;DHT22;17702;47.590;7.666;2023-03-01T07:25:08;1.20;99.30
31038;DHT22;17702;47.590;7.666;2023-03-01T07:27:33;1.20;99.00
31038;DHT22;17702;47.590;7.666;2023-03-01T07:29:59;1.10;99.00
31038;DHT22;17702;47.590;7.666;2023-03-01T07:32:24;1.10;99.50
31038;DHT22;17702;47.590;7.666;2023-03-01T07:34:50;1.10;99.30
31038;DHT22;17702;47.590;7.666;2023-03-01T07:37:16;1.10;99.60
31038;DHT22;17702;47.590;7.666;2023-03-01T07:39:41;1.20;99.00
31038;DHT22;17702;47.590;7.666;2023-03-01T07:42:07;1.10;99.10
31038;DHT22;17702;47.590;7.666;2023-03-01T07:44:33;1.10;99.10
31038;DHT22;17702;47.590;7.666;2023-03-01T07:46:59;1.10;99.80
31038;DHT22;17702;47.590;7.666;2023-03-01T07:49:25;1.20;99.40
31038;DHT22;17702;47.590;7.666;2023-03-01T07:51:51;1.20;99.20
31038;DHT22;17702;47.590;7.666;2023-03-01T07:54:17;1.20;99.60
31038;DHT22;17702;47.590;7.666;2023-03-01T07:56:43;1.30;99.20
31038;DHT22;17702;47.590;7.666;2023-03-01T07:59:08;1.30;99.10
31038;DHT22;17702;47.590;7.666;2023-03-01T08:01:34;1.30;99.00
31038;DHT22;17702;47.590;7.666;2023-03-01T08:04:00;1.30;98.90
31038;DHT22;17702;47.590;7.666;2023-03-01T08:06:25;1.40;99.00
31038;DHT22;17702;47.590;7.666;2023-03-01T08:08:51;1.40;99.10
31038;DHT22;17702;47.590;7.666;2023-03-01T08:11:16;1.30;99.30
31038;DHT22;17702;47.590;7.666;2023-03-01T08:13:42;1.30;99.00
31038;DHT22;17702;47.590;7.666;2023-03-01T08:16:09;1.30;98.80
31038;DHT22;17702;47.590;7.666;2023-03-01T08:18:35;1.30;99.00
31038;DHT22;17702;47.590;7.666;2023-03-01T08:21:04;2.00;99.90
31038;DHT22;17702;47.590;7.666;2023-03-01T08:23:30;2.80;99.90
31038;DHT22;17702;47.590;7.666;2023-03-01T08:26:02;2.80;99.90
31038;DHT22;17702;47.590;7.666;2023-03-01T08:28:28;2.80;97.50
31038;DHT22;17702;47.590;7.666;2023-03-01T08:30:53;2.40;96.10
31038;DHT22;17702;47.590;7.666;2023-03-01T08:33:19;2.00;96.60
31038;DHT22;17702;47.590;7.666;2023-03-01T08:35:44;1.90;97.60
31038;DHT22;17702;47.590;7.666;2023-03-01T08:38:10;1.90;97.90
31038;DHT22;17702;47.590;7.666;2023-03-01T08:40:35;1.80;97.20
31038;DHT22;17702;47.590;7.666;2023-03-01T08:43:00;1.80;97.50
31038;DHT22;17702;47.590;7.666;2023-03-01T08:45:26;1.80;97.70
31038;DHT22;17702;47.590;7.666;2023-03-01T08:48:08;1.80;97.50
31038;DHT22;17702;47.590;7.666;2023-03-01T08:50:34;1.70;97.70
31038;DHT22;17702;47.590;7.666;2023-03-01T08:52:59;1.70;97.90
31038;DHT22;17702;47.590;7.666;2023-03-01T08:55:25;1.60;98.20
31038;DHT22;17702;47.590;7.666;2023-03-01T08:57:50;1.70;98.30
31038;DHT22;17702;47.590;7.666;2023-03-01T09:00:16;1.70;98.00
31038;DHT22;17702;47.590;7.666;2023-03-01T09:02:42;1.80;97.60
31038;DHT22;17702;47.590;7.666;2023-03-01T09:05:08;1.70;98.00
31038;DHT22;17702;47.590;7.666;2023-03-01T09:07:34;1.70;97.60
31038;DHT22;17702;47.590;7.666;2023-03-01T09:09:59;1.80;97.90
31038;DHT22;17702;47.590;7.666;2023-03-01T09:12:24;1.80;98.00
31038;DHT22;17702;47.590;7.666;2023-03-01T09:14:50;1.80;97.70
31038;DHT22;17702;47.590;7.666;2023-03-01T09:17:15;1.70;98.10
31038;DHT22;17702;47.590;7.666;2023-03-01T09:19:41;1.80;98.00
31038;DHT22;17702;47.590;7.666;2023-03-01T09:22:07;1.70;98.40
31038;DHT22;17702;47.590;7.666;2023-03-01T09:24:32;1.70;98.20
31038;DHT22;17702;47.590;7.666;2023-03-01T09:26:58;1.60;98.20
31038;DHT22;17702;47.590;7.666;2023-03-01T09:29:23;1.70;98.80
31038;DHT22;17702;47.590;7.666;2023-03-01T09:31:49;1.80;98.50
31038;DHT22;17702;47.590;7.666;2023-03-01T09:34:14;1.80;97.80
31038;DHT22;17702;47.590;7.666;2023-03-01T09:36:44;1.80;97.90
31038;DHT22;17702;47.590;7.666;2023-03-01T09:39:09;1.80;98.00
31038;DHT22;17702;47.590;7.666;2023-03-01T09:47:00;1.90;98.30
31038;DHT22;17702;47.590;7.666;2023-03-01T09:49:27;1.90;98.30
31038;DHT22;17702;47.590;7.666;2023-03-01T09:51:55;2.00;98.00
31038;DHT22;17702;47.590;7.666;2023-03-01T09:54:21;2.00;97.80
31038;DHT22;17702;47.590;7.666;2023-03-01T09:56:51;2.00;97.60
31038;DHT22;17702;47.590;7.666;2023-03-01T10:07:14;2.00;98.30
31038;DHT22;17702;47.590;7.666;2023-03-01T10:09:43;2.00;97.90
31038;DHT22;17702;47.590;7.666;2023-03-01T10:12:11;2.10;98.30
31038;DHT22;17702;47.590;7.666;2023-03-01T10:14:48;2.10;98.10
31038;DHT22;17702;47.590;7.666;2023-03-01T10:20:15;2.10;97.70
31038;DHT22;17702;47.590;7.666;2023-03-01T10:22:41;2.20;97.70
31038;DHT22;17702;47.590;7.666;2023-03-01T10:25:12;2.20;98.10
31038;DHT22;17702;47.590;7.666;2023-03-01T10:27:42;2.30;98.20
31038;DHT22;17702;47.590;7.666;2023-03-01T10:30:13;2.30;97.50
31038;DHT22;17702;47.590;7.666;2023-03-01T10:32:41;2.40;97.80
31038;DHT22;17702;47.590;7.666;2023-03-01T10:40:22;2.30;98.00
31038;DHT22;17702;47.590;7.666;2023-03-01T10:42:48;2.30;98.20
31038;DHT22;17702;47.590;7.666;2023-03-01T10:50:29;2.60;97.60
31038;DHT22;17702;47.590;7.666;2023-03-01T10:52:57;2.70;97.30
31038;DHT22;17702;47.590;7.666;2023-03-01T10:58:16;2.80;97.20
31038;DHT22;17702;47.590;7.666;2023-03-01T11:01:00;2.80;97.10
31038;DHT22;17702;47.590;7.666;2023-03-01T11:05:56;2.80;96.60
31038;DHT22;17702;47.590;7.666;2023-03-01T11:13:51;2.80;97.20
31038;DHT22;17702;47.590;7.666;2023-03-01T11:16:22;2.80;96.80
31038;DHT22;17702;47.590;7.666;2023-03-01T11:18:55;2.80;96.60
31038;DHT22;17702;47.590;7.666;2023-03-01T11:21:21;2.80;96.90
31038;DHT22;17702;47.590;7.666;2023-03-01T11:23:46;2.90;96.90
31038;DHT22;17702;47.590;7.666;2023-03-01T11:26:12;2.90;96.80
31038;DHT22;17702;47.590;7.666;2023-03-01T11:28:38;2.90;96.60
31038;DHT22;17702;47.590;7.666;2023-03-01T11:31:06;2.90;97.00
31038;DHT22;17702;47.590;7.666;2023-03-01T11:36:07;2.90;96.70
31038;DHT22;17702;47.590;7.666;2023-03-01T11:38:36;2.90;96.20
31038;DHT22;17702;47.590;7.666;2023-03-01T11:41:05;2.90;96.70
31038;DHT22;17702;47.590;7.666;2023-03-01T11:43:52;3.00;97.00
31038;DHT22;17702;47.590;7.666;2023-03-01T11:56:54;3.40;96.20
31038;DHT22;17702;47.590;7.666;2023-03-01T12:17:35;3.60;95.80
31038;DHT22;17702;47.590;7.666;2023-03-01T12:22:50;3.80;95.90
31038;DHT22;17702;47.590;7.666;2023-03-01T12:25:34;3.80;96.10
31038;DHT22;17702;47.590;7.666;2023-03-01T12:38:56;4.10;95.60
31038;DHT22;17702;47.590;7.666;2023-03-01T12:41:31;4.20;95.50
31038;DHT22;17702;47.590;7.666;2023-03-01T12:44:07;4.20;95.50
31038;DHT22;17702;47.590;7.666;2023-03-01T12:46:42;4.30;96.00
31038;DHT22;17702;47.590;7.666;2023-03-01T12:49:14;4.40;95.80
31038;DHT22;17702;47.590;7.666;2023-03-01T12:51:42;4.40;95.30
31038;DHT22;17702;47.590;7.666;2023-03-01T12:54:16;4.40;95.40
31038;DHT22;17702;47.590;7.666;2023-03-01T12:56:41;4.50;95.30
31038;DHT22;17702;47.590;7.666;2023-03-01T12:59:25;4.60;95.00
31038;DHT22;17702;47.590;7.666;2023-03-01T13:04:44;4.70;95.30
31038;DHT22;17702;47.590;7.666;2023-03-01T13:07:32;4.70;94.70
31038;DHT22;17702;47.590;7.666;2023-03-01T13:10:11;4.70;94.80
31038;DHT22;17702;47.590;7.666;2023-03-01T13:17:49;4.80;94.80
31038;DHT22;17702;47.590;7.666;2023-03-01T13:20:17;4.80;94.70
31038;DHT22;17702;47.590;7.666;2023-03-01T13:22:43;4.90;94.70
31038;DHT22;17702;47.590;7.666;2023-03-01T13:25:14;4.90;94.90
31038;DHT22;17702;47.590;7.666;2023-03-01T13:27:40;5.00;94.70
31038;DHT22;17702;47.590;7.666;2023-03-01T13:30:37;5.00;94.20
31038;DHT22;17702;47.590;7.666;2023-03-01T13:32:51;5.00;94.90
31038;DHT22;17702;47.590;7.666;2023-03-01T13:37:43;5.10;94.50
31038;DHT22;17702;47.590;7.666;2023-03-01T13:42:44;5.00;94.20
31038;DHT22;17702;47.590;7.666;2023-03-01T13:47:57;5.20;94.10
31038;DHT22;17702;47.590;7.666;2023-03-01T13:50:33;5.20;94.00
31038;DHT22;17702;47.590;7.666;2023-03-01T13:53:00;5.20;93.80
31038;DHT22;17702;47.590;7.666;2023-03-01T13:55:30;5.20;94.20
31038;DHT22;17702;47.590;7.666;2023-03-01T13:57:58;5.20;94.30
31038;DHT22;17702;47.590;7.666;2023-03-01T14:02:59;5.30;93.70
31038;DHT22;17702;47.590;7.666;2023-03-01T14:05:24;5.40;93.90
31038;DHT22;17702;47.590;7.666;2023-03-01T14:07:51;5.40;92.90
31038;DHT22;17702;47.590;7.666;2023-03-01T14:10:16;5.40;92.80
31038;DHT22;17702;47.590;7.666;2023-03-01T14:13:05;5.30;92.50
31038;DHT22;17702;47.590;7.666;2023-03-01T14:15:33;5.30;93.30
31038;DHT22;17702;47.590;7.666;2023-03-01T14:18:10;5.30;93.20
31038;DHT22;17702;47.590;7.666;2023-03-01T14:20:38;5.30;93.40
31038;DHT22;17702;47.590;7.666;2023-03-01T14:23:10;5.30;92.90
31038;DHT22;17702;47.590;7.666;2023-03-01T14:25:36;5.30;93.00
31038;DHT22;17702;47.590;7.666;2023-03-01T14:28:04;5.30;92.50
31038;DHT22;17702;47.590;7.666;2023-03-01T14:30:31;5.30;93.40
31038;DHT22;17702;47.590;7.666;2023-03-01T14:32:58;5.30;93.10
31038;DHT22;17702;47.590;7.666;2023-03-01T14:35:31;5.20;92.90
31038;DHT22;17702;47.590;7.666;2023-03-01T14:37:57;5.30;93.00
31038;DHT22;17702;47.590;7.666;2023-03-01T14:40:33;5.30;92.50
31038;DHT22;17702;47.590;7.666;2023-03-01T14:43:00;5.30;92.70
31038;DHT22;17702;47.590;7.666;2023-03-01T14:45:28;5.30;92.60
31038;DHT22;17702;47.590;7.666;2023-03-01T14:47:54;5.30;92.20
31038;DHT22;17702;47.590;7.666;2023-03-01T14:50:25;5.30;92.70
31038;DHT22;17702;47.590;7.666;2023-03-01T14:52:52;5.30;92.40
31038;DHT22;17702;47.590;7.666;2023-03-01T14:55:52;5.30;92.50
31038;DHT22;17702;47.590;7.666;2023-03-01T14:58:14;5.30;91.80
31038;DHT22;17702;47.590;7.666;2023-03-01T15:00:56;5.20;92.20
31038;DHT22;17702;47.590;7.666;2023-03-01T15:03:40;5.30;92.30
31038;DHT22;17702;47.590;7.666;2023-03-01T15:06:07;5.30;92.10
31038;DHT22;17702;47.590;7.666;2023-03-01T15:08:33;5.30;93.00
31038;DHT22;17702;47.590;7.666;2023-03-01T15:13:44;5.40;92.00
31038;DHT22;17702;47.590;7.666;2023-03-01T15:16:18;5.40;91.80
31038;DHT22;17702;47.590;7.666;2023-03-01T15:18:51;5.40;92.20
31038;DHT22;17702;47.590;7.666;2023-03-01T15:21:28;5.50;91.90
31038;DHT22;17702;47.590;7.666;2023-03-01T15:24:01;5.50;91.70
31038;DHT22;17702;47.590;7.666;2023-03-01T15:26:29;5.50;91.80
31038;DHT22;17702;47.590;7.666;2023-03-01T15:28:56;5.40;91.50
31038;DHT22;17702;47.590;7.666;2023-03-01T15:31:29;5.40;91.50
31038;DHT22;17702;47.590;7.666;2023-03-01T15:36:44;5.40;91.50
31038;DHT22;17702;47.590;7.666;2023-03-01T15:42:12;5.50;91.50
31038;DHT22;17702;47.590;7.666;2023-03-01T15:44:39;5.50;88.50
31038;DHT22;17702;47.590;7.666;2023-03-01T15:49:51;5.50;86.00
31038;DHT22;17702;47.590;7.666;2023-03-01T15:52:20;5.60;84.20
31038;DHT22;17702;47.590;7.666;2023-03-01T15:54:46;5.50;84.90
31038;DHT22;17702;47.590;7.666;2023-03-01T15:57:14;5.60;84.60
31038;DHT22;17702;47.590;7.666;2023-03-01T15:59:43;5.50;84.30
31038;DHT22;17702;47.590;7.666;2023-03-01T16:02:10;5.50;83.40
31038;DHT22;17702;47.590;7.666;2023-03-01T16:04:38;5.40;84.40
31038;DHT22;17702;47.590;7.666;2023-03-01T16:07:03;5.40;85.00
31038;DHT22;17702;47.590;7.666;2023-03-01T16:09:29;5.40;83.60
31038;DHT22;17702;47.590;7.666;2023-03-01T16:11:54;5.50;83.90
31038;DHT22;17702;47.590;7.666;2023-03-01T16:14:20;5.50;83.00
31038;DHT22;17702;47.590;7.666;2023-03-01T16:16:46;5.50;82.00
31038;DHT22;17702;47.590;7.666;2023-03-01T16:19:13;5.40;83.20
31038;DHT22;17702;47.590;7.666;2023-03-01T16:21:39;5.40;82.50
31038;DHT22;17702;47.590;7.666;2023-03-01T16:24:04;5.40;82.30
31038;DHT22;17702;47.590;7.666;2023-03-01T16:26:30;5.40;81.80
31038;DHT22;17702;47.590;7.666;2023-03-01T16:28:56;5.40;81.40
31038;DHT22;17702;47.590;7.666;2023-03-01T16:31:22;5.40;82.10
31038;DHT22;17702;47.590;7.666;2023-03-01T16:33:48;5.40;81.80
31038;DHT22;17702;47.590;7.666;2023-03-01T16:36:18;5.30;81.70
31038;DHT22;17702;47.590;7.666;2023-03-01T16:38:44;5.20;83.60
31038;DHT22;17702;47.590;7.666;2023-03-01T16:41:13;5.30;83.60
31038;DHT22;17702;47.590;7.666;2023-03-01T16:43:39;5.30;83.30
31038;DHT22;17702;47.590;7.666;2023-03-01T16:46:09;5.30;83.20
31038;DHT22;17702;47.590;7.666;2023-03-01T16:48:35;5.30;83.30
31038;DHT22;17702;47.590;7.666;2023-03-01T16:51:00;5.30;84.10
31038;DHT22;17702;47.590;7.666;2023-03-01T16:53:27;5.20;84.40
31038;DHT22;17702;47.590;7.666;2023-03-01T16:55:56;5.20;85.20
31038;DHT22;17702;47.590;7.666;2023-03-01T16:58:22;5.10;84.40
31038;DHT22;17702;47.590;7.666;2023-03-01T17:00:53;5.10;86.50
31038;DHT22;17702;47.590;7.666;2023-03-01T17:03:22;4.90;87.30
31038;DHT22;17702;47.590;7.666;2023-03-01T17:05:48;4.80;88.80
31038;DHT22;17702;47.590;7.666;2023-03-01T17:08:13;4.80;89.40
31038;DHT22;17702;47.590;7.666;2023-03-01T17:10:39;4.70;90.30
31038;DHT22;17702;47.590;7.666;2023-03-01T17:13:04;4.50;90.70
31038;DHT22;17702;47.590;7.666;2023-03-01T17:15:30;4.20;91.20
31038;DHT22;17702;47.590;7.666;2023-03-01T17:17:55;4.00;91.70
31038;DHT22;17702;47.590;7.666;2023-03-01T17:20:21;4.00;92.20
31038;DHT22;17702;47.590;7.666;2023-03-01T17:22:46;3.80;92.70
31038;DHT22;17702;47.590;7.666;2023-03-01T17:25:12;3.70;93.30
31038;DHT22;17702;47.590;7.666;2023-03-01T17:27:38;3.70;93.90
31038;DHT22;17702;47.590;7.666;2023-03-01T17:30:04;3.60;93.80
31038;DHT22;17702;47.590;7.666;2023-03-01T17:32:30;3.50;94.80
31038;DHT22;17702;47.590;7.666;2023-03-01T17:34:56;3.30;95.10
31038;DHT22;17702;47.590;7.666;2023-03-01T17:37:21;3.40;95.00
31038;DHT22;17702;47.590;7.666;2023-03-01T17:39:47;3.40;95.10
31038;DHT22;17702;47.590;7.666;2023-03-01T17:42:12;3.40;95.40
31038;DHT22;17702;47.590;7.666;2023-03-01T17:44:38;3.40;95.50